M/V Gs980 — WTK9405 — position and weather

sailwx.info

Track history (hours):
 
Tides and Currents Weather Stations Pressure Air Temp Water Temp Dewpoint Dewpoint Depression Visibility Wind Speed Wind Dir Waves Ship Positions

M/V Gs980

Owner: ERGON MARINE AND INDUSTRIAL SUPPLY, VICKSBURG, MS. More information available from US FCC via Universal Licensing System and Coast Guard Vessel Documentation Center.

Last reported at 2016-Aug-24 09:33 UTC. Time now 2016-Aug-24 10:14 UTC.
Position N 32°20' W 090°54'.

Length 16 m.

Type: Towing. MMSI: 367099640.

Date/timePositionNaut miles runAvg speedWind from/ knotsBaromVisibWave heightAir tempDewpointWater temp
2016-Aug-24 09:33N 32°20' W 090°54'0 0.0
2016-Aug-24 08:34N 32°20' W 090°54'0 0.0
2016-Aug-24 07:34N 32°20' W 090°54'0 0.0
2016-Aug-24 06:34N 32°20' W 090°54'0 0.1
2016-Aug-24 04:33N 32°20' W 090°54'1 1.3
2016-Aug-24 03:34N 32°22' W 090°53'4 4.0
2016-Aug-24 02:34N 32°18' W 090°55'0 0.0
2016-Aug-24 01:33N 32°18' W 090°55'1 0.7
2016-Aug-24 00:34N 32°18' W 090°56'1 1.3
2016-Aug-23 23:34N 32°18' W 090°55'1 1.3
2016-Aug-23 22:33N 32°20' W 090°54'2 2.3
2016-Aug-23 21:34N 32°22' W 090°53'2 1.5
2016-Aug-23 20:33N 32°23' W 090°53'0 0.0
2016-Aug-23 19:33N 32°23' W 090°53'1 0.6
2016-Aug-23 18:31N 32°23' W 090°53'3 2.7
2016-Aug-23 17:33N 32°21' W 090°54'4 4.3
2016-Aug-23 16:33N 32°21' W 090°59'4 4.0
2016-Aug-23 15:33N 32°20' W 090°54'1 0.6
2016-Aug-23 14:33N 32°20' W 090°54'0 0.0
2016-Aug-23 13:33N 32°20' W 090°54'0 0.0
2016-Aug-23 12:33N 32°20' W 090°54'0 0.0
2016-Aug-23 11:33N 32°20' W 090°54'0 0.0
2016-Aug-23 10:33N 32°20' W 090°54'1 0.7
2016-Aug-23 09:33N 32°20' W 090°54'3 2.9
2016-Aug-23 08:33N 32°23' W 090°53'0 0.0
2016-Aug-23 07:33N 32°23' W 090°53'0 0.0
2016-Aug-23 06:33N 32°23' W 090°53'0 0.0
2016-Aug-23 05:33N 32°23' W 090°53'0 0.0
2016-Aug-23 04:33N 32°23' W 090°53'0 0.0
2016-Aug-23 03:33N 32°23' W 090°53'0 0.0
2016-Aug-23 02:33N 32°23' W 090°53'0 0.0
2016-Aug-23 01:33N 32°23' W 090°53'0 0.0
2016-Aug-23 00:33N 32°23' W 090°53'4 1.4
2016-Aug-22 22:06N 32°20' W 090°54'1 1.9
2016-Aug-22 21:34N 32°21' W 090°54'0 0.0
2016-Aug-22 20:33N 32°21' W 090°54'1 1.0
2016-Aug-22 19:34N 32°21' W 090°55'3 3.5
2016-Aug-22 18:33N 32°21' W 090°59'5 4.6
2016-Aug-22 17:33N 32°21' W 090°53'2 2.4
2016-Aug-22 16:33N 32°23' W 090°53'0 0.4
2016-Aug-22 15:33N 32°23' W 090°53'0 0.4
2016-Aug-22 14:33N 32°23' W 090°53'0 0.0
2016-Aug-22 13:33N 32°23' W 090°53'0 0.5
2016-Aug-22 12:33N 32°23' W 090°53'4 3.6
2016-Aug-22 11:33N 32°20' W 090°54'2 0.6
2016-Aug-22 08:33N 32°21' W 090°53'2 2.3
2016-Aug-22 07:33N 32°21' W 090°56'3 0.6
2016-Aug-22 02:12N 32°23' W 090°53'0 0.0
2016-Aug-22 01:34N 32°23' W 090°53'0 0.0
2016-Aug-22 00:34N 32°23' W 090°53'2 1.5
2016-Aug-21 23:34N 32°22' W 090°53'2 2.3
2016-Aug-21 22:34N 32°20' W 090°54'0 0.0
2016-Aug-21 21:34N 32°20' W 090°54'1 0.7
2016-Aug-21 20:34N 32°20' W 090°54'3 2.9
2016-Aug-21 19:34N 32°23' W 090°53'0 0.0
2016-Aug-21 18:34N 32°23' W 090°53'0 0.0
2016-Aug-21 17:33N 32°23' W 090°53'0 0.0
2016-Aug-21 16:34N 32°23' W 090°53'0 0.0
2016-Aug-21 15:34N 32°23' W 090°53'0 0.0
2016-Aug-21 14:34N 32°23' W 090°53'0 0.0
2016-Aug-21 13:34N 32°23' W 090°53'0 0.1
2016-Aug-21 12:33N 32°23' W 090°54'1 0.4
2016-Aug-21 09:33N 32°23' W 090°52'1 0.9
2016-Aug-21 08:33N 32°23' W 090°53'0 0.0
2016-Aug-21 07:33N 32°23' W 090°53'0 0.0
2016-Aug-21 06:33N 32°23' W 090°53'0 0.0
2016-Aug-21 05:33N 32°23' W 090°53'0 0.0
2016-Aug-21 04:33N 32°23' W 090°53'0 0.0
2016-Aug-21 03:33N 32°23' W 090°53'0 0.0
2016-Aug-21 02:33N 32°23' W 090°53'0 0.0
2016-Aug-21 01:34N 32°23' W 090°53'0 0.0
2016-Aug-21 00:33N 32°23' W 090°53'2 2.2
2016-Aug-20 23:33N 32°21' W 090°53'1 0.7
2016-Aug-20 21:34N 32°20' W 090°54'1 0.9
2016-Aug-20 20:34N 32°20' W 090°54'0 0.0
2016-Aug-20 19:34N 32°20' W 090°54'0 0.0
2016-Aug-20 18:33N 32°20' W 090°54'0 0.0
2016-Aug-20 17:34N 32°20' W 090°54'0 0.1
2016-Aug-20 16:34N 32°20' W 090°54'0 0.0
2016-Aug-20 15:34N 32°20' W 090°54'1 1.1
2016-Aug-20 14:33N 32°21' W 090°53'0 0.2
2016-Aug-20 13:33N 32°21' W 090°53'3 3.2
2016-Aug-20 12:33N 32°21' W 090°57'3 0.7
2016-Aug-20 08:27N 32°20' W 090°54'4 4.0
2016-Aug-20 07:34N 32°23' W 090°53'0 0.0
2016-Aug-20 06:33N 32°23' W 090°53'0 0.0
2016-Aug-20 05:33N 32°23' W 090°53'0 0.0
2016-Aug-20 04:33N 32°23' W 090°53'0 0.0
2016-Aug-20 03:33N 32°23' W 090°53'0 0.0
2016-Aug-20 02:33N 32°23' W 090°53'0 0.0
2016-Aug-20 01:33N 32°23' W 090°53'0 0.0
2016-Aug-20 00:33N 32°23' W 090°53'2 1.8
2016-Aug-19 23:33N 32°21' W 090°53'3 2.6
2016-Aug-19 22:33N 32°19' W 090°54'1 0.8
2016-Aug-19 21:33N 32°18' W 090°55'4 4.4
2016-Aug-19 20:33N 32°22' W 090°53'0 0.0
2016-Aug-19 19:33N 32°22' W 090°53'2 1.8
2016-Aug-19 18:33N 32°21' W 090°53'0 0.0
2016-Aug-19 17:33N 32°21' W 090°53'0 0.0
2016-Aug-19 16:33N 32°21' W 090°53'1 0.5
2016-Aug-19 15:33N 32°21' W 090°53'3 2.9
2016-Aug-19 14:33N 32°21' W 090°57'0 0.2
2016-Aug-19 13:33N 32°21' W 090°57'0 0.1
2016-Aug-19 12:33N 32°21' W 090°57'3 2.8
2016-Aug-19 11:33N 32°19' W 090°54'1 0.8
2016-Aug-19 10:10N 32°20' W 090°54'3 4.7
2016-Aug-19 09:33N 32°23' W 090°53'0 0.0
2016-Aug-19 08:33N 32°23' W 090°53'0 0.0
2016-Aug-19 07:33N 32°23' W 090°53'0 0.0
2016-Aug-19 06:33N 32°23' W 090°53'0 0.0
2016-Aug-19 05:33N 32°23' W 090°53'0 0.0
2016-Aug-19 04:33N 32°23' W 090°53'0 0.0
2016-Aug-19 03:33N 32°23' W 090°53'0 0.0
2016-Aug-19 02:33N 32°23' W 090°53'0 0.0
2016-Aug-19 01:33N 32°23' W 090°53'1 1.3
2016-Aug-19 00:33N 32°22' W 090°53'3 1.1
2016-Aug-18 22:05N 32°20' W 090°54'3 6.6
2016-Aug-18 21:33N 32°23' W 090°53'1 0.6
2016-Aug-18 20:34N 32°23' W 090°53'0 0.0
2016-Aug-18 19:33N 32°23' W 090°53'0 0.0
2016-Aug-18 18:33N 32°23' W 090°53'0 0.0
2016-Aug-18 17:33N 32°23' W 090°53'0 0.0
2016-Aug-18 16:33N 32°23' W 090°53'0 0.0
2016-Aug-18 15:33N 32°23' W 090°53'0 0.0
2016-Aug-18 14:33N 32°23' W 090°53'1 0.5
2016-Aug-18 13:33N 32°23' W 090°53'3 1.7
2016-Aug-18 11:33N 32°20' W 090°54'0 0.1
2016-Aug-18 10:20N 32°20' W 090°54'4 4.6
2016-Aug-18 09:33N 32°23' W 090°53'0 0.0
2016-Aug-18 08:34N 32°23' W 090°53'0 0.0
2016-Aug-18 07:34N 32°23' W 090°53'0 0.0
2016-Aug-18 06:34N 32°23' W 090°53'0 0.0
2016-Aug-18 05:34N 32°23' W 090°53'0 0.0
2016-Aug-18 04:33N 32°23' W 090°53'0 0.2
2016-Aug-18 03:33N 32°23' W 090°54'0 0.2
2016-Aug-18 02:33N 32°23' W 090°53'0 0.0
2016-Aug-18 01:34N 32°23' W 090°53'0 0.5
2016-Aug-18 00:33N 32°23' W 090°53'3 1.6
2016-Aug-17 22:25N 32°20' W 090°54'0 0.1
2016-Aug-17 21:34N 32°20' W 090°54'1 1.1
2016-Aug-17 20:34N 32°21' W 090°53'3 3.4
2016-Aug-17 19:34N 32°21' W 090°57'2 1.7
2016-Aug-17 18:34N 32°21' W 090°55'3 3.0
2016-Aug-17 17:34N 32°22' W 090°53'0 0.3
2016-Aug-17 16:33N 32°22' W 090°53'1 1.0
2016-Aug-17 15:33N 32°23' W 090°53'1 1.2
2016-Aug-17 14:33N 32°23' W 090°54'0 0.4
2016-Aug-17 13:34N 32°23' W 090°54'2 1.5
2016-Aug-17 12:34N 32°21' W 090°53'2 1.9
2016-Aug-17 11:34N 32°20' W 090°54'2 0.8
2016-Aug-17 09:33N 32°21' W 090°53'1 1.3
2016-Aug-17 08:33N 32°22' W 090°53'2 2.1
2016-Aug-17 07:33N 32°20' W 090°54'0 0.2
2016-Aug-17 06:33N 32°20' W 090°54'0 0.1
2016-Aug-17 05:33N 32°20' W 090°54'0 0.3
2016-Aug-17 04:33N 32°20' W 090°54'0 0.0
2016-Aug-17 03:33N 32°20' W 090°54'0 0.0
2016-Aug-17 02:33N 32°20' W 090°54'0 0.0
2016-Aug-17 01:33N 32°20' W 090°54'1 1.3
2016-Aug-17 00:33N 32°22' W 090°53'1 0.6
2016-Aug-16 23:33N 32°21' W 090°53'0 0.2
2016-Aug-16 21:33N 32°21' W 090°53'2 2.2
2016-Aug-16 20:33N 32°23' W 090°53'1 1.4
2016-Aug-16 19:33N 32°22' W 090°53'2 1.5
2016-Aug-16 18:33N 32°23' W 090°54'2 2.3
2016-Aug-16 17:33N 32°20' W 090°54'0 0.2
2016-Aug-16 16:33N 32°20' W 090°54'3 2.6
2016-Aug-16 15:33N 32°23' W 090°53'1 0.9
2016-Aug-16 14:33N 32°23' W 090°53'0 0.1
2016-Aug-16 13:33N 32°23' W 090°53'1 0.8
2016-Aug-16 12:33N 32°23' W 090°54'3 2.4
2016-Aug-16 11:16N 32°20' W 090°54'2 2.6
2016-Aug-16 10:33N 32°18' W 090°55'5 5.2
2016-Aug-16 09:33N 32°23' W 090°53'1 0.8
2016-Aug-16 08:33N 32°23' W 090°53'0 0.0
2016-Aug-16 07:33N 32°23' W 090°53'0 0.0
2016-Aug-16 06:33N 32°23' W 090°53'0 0.0
2016-Aug-16 04:33N 32°23' W 090°53'0 0.0
2016-Aug-16 03:33N 32°23' W 090°53'1 1.0
2016-Aug-16 02:33N 32°22' W 090°53'2 1.7
2016-Aug-16 01:33N 32°21' W 090°53'0 0.3
2016-Aug-16 00:33N 32°20' W 090°54'0 0.2
2016-Aug-15 23:33N 32°20' W 090°54'1 0.3
2016-Aug-15 21:33N 32°20' W 090°54'1 0.8
2016-Aug-15 20:33N 32°19' W 090°54'0 0.4
2016-Aug-15 19:34N 32°19' W 090°55'5 4.6
2016-Aug-15 18:33N 32°23' W 090°53'2 1.8
2016-Aug-15 17:34N 32°24' W 090°55'1 1.4
2016-Aug-15 16:34N 32°23' W 090°53'0 0.0
2016-Aug-15 15:33N 32°23' W 090°53'0 0.0
2016-Aug-15 14:34N 32°23' W 090°53'0 0.3
2016-Aug-15 13:34N 32°23' W 090°53'4 1.1
2016-Aug-15 10:16N 32°20' W 090°54'3 4.0
2016-Aug-15 09:33N 32°22' W 090°53'0 0.4
2016-Aug-15 08:33N 32°22' W 090°53'0 0.0
2016-Aug-15 07:33N 32°22' W 090°53'0 0.0
2016-Aug-15 06:33N 32°22' W 090°53'0 0.0
2016-Aug-15 04:33N 32°22' W 090°53'0 0.0
2016-Aug-15 03:33N 32°22' W 090°53'0 0.0
2016-Aug-15 02:33N 32°22' W 090°53'0 0.0
2016-Aug-15 01:33N 32°22' W 090°53'0 0.4
2016-Aug-15 00:34N 32°23' W 090°54'3 2.8
2016-Aug-14 23:33N 32°20' W 090°54'3 1.3
2016-Aug-14 21:33N 32°22' W 090°53'1 1.2
2016-Aug-14 20:33N 32°23' W 090°53'0 0.0
2016-Aug-14 19:33N 32°23' W 090°53'0 0.0
2016-Aug-14 18:33N 32°23' W 090°53'0 0.0
2016-Aug-14 17:33N 32°23' W 090°53'0 0.0
2016-Aug-14 16:33N 32°23' W 090°53'0 0.0
2016-Aug-14 15:33N 32°23' W 090°53'0 0.3
2016-Aug-14 14:33N 32°23' W 090°53'2 1.5
2016-Aug-14 13:33N 32°23' W 090°55'4 3.8
2016-Aug-14 12:33N 32°20' W 090°54'0 0.0
2016-Aug-14 10:34N 32°20' W 090°54'1 0.8
2016-Aug-14 09:33N 32°20' W 090°54'  
Track history (hours):
 
Tides and Currents Weather Stations Pressure Air Temp Water Temp Dewpoint Dewpoint Depression Visibility Wind Speed Wind Dir Waves Ship Positions

M/V Gs980

Owner: ERGON MARINE AND INDUSTRIAL SUPPLY, VICKSBURG, MS. More information available from US FCC via Universal Licensing System and Coast Guard Vessel Documentation Center.

Last reported at 2016-Aug-24 09:33 UTC. Time now 2016-Aug-24 10:14 UTC.
Position N 32°20' W 090°54'.

Length 16 m.

Type: Towing. MMSI: 367099640.

Date/timePositionNaut miles runAvg speedWind from/ knotsBaromVisibWave heightAir tempDewpointWater temp
2016-Aug-24 09:33N 32°20' W 090°54'0 0.0
2016-Aug-24 08:34N 32°20' W 090°54'0 0.0
2016-Aug-24 07:34N 32°20' W 090°54'0 0.0
2016-Aug-24 06:34N 32°20' W 090°54'0 0.1
2016-Aug-24 04:33N 32°20' W 090°54'1 1.3
2016-Aug-24 03:34N 32°22' W 090°53'4 4.0
2016-Aug-24 02:34N 32°18' W 090°55'0 0.0
2016-Aug-24 01:33N 32°18' W 090°55'1 0.7
2016-Aug-24 00:34N 32°18' W 090°56'1 1.3
2016-Aug-23 23:34N 32°18' W 090°55'1 1.3
2016-Aug-23 22:33N 32°20' W 090°54'2 2.3
2016-Aug-23 21:34N 32°22' W 090°53'2 1.5
2016-Aug-23 20:33N 32°23' W 090°53'0 0.0
2016-Aug-23 19:33N 32°23' W 090°53'1 0.6
2016-Aug-23 18:31N 32°23' W 090°53'3 2.7
2016-Aug-23 17:33N 32°21' W 090°54'4 4.3
2016-Aug-23 16:33N 32°21' W 090°59'4 4.0
2016-Aug-23 15:33N 32°20' W 090°54'1 0.6
2016-Aug-23 14:33N 32°20' W 090°54'0 0.0
2016-Aug-23 13:33N 32°20' W 090°54'0 0.0
2016-Aug-23 12:33N 32°20' W 090°54'0 0.0
2016-Aug-23 11:33N 32°20' W 090°54'0 0.0
2016-Aug-23 10:33N 32°20' W 090°54'1 0.7
2016-Aug-23 09:33N 32°20' W 090°54'3 2.9
2016-Aug-23 08:33N 32°23' W 090°53'0 0.0
2016-Aug-23 07:33N 32°23' W 090°53'0 0.0
2016-Aug-23 06:33N 32°23' W 090°53'0 0.0
2016-Aug-23 05:33N 32°23' W 090°53'0 0.0
2016-Aug-23 04:33N 32°23' W 090°53'0 0.0
2016-Aug-23 03:33N 32°23' W 090°53'0 0.0
2016-Aug-23 02:33N 32°23' W 090°53'0 0.0
2016-Aug-23 01:33N 32°23' W 090°53'0 0.0
2016-Aug-23 00:33N 32°23' W 090°53'4 1.4
2016-Aug-22 22:06N 32°20' W 090°54'1 1.9
2016-Aug-22 21:34N 32°21' W 090°54'0 0.0
2016-Aug-22 20:33N 32°21' W 090°54'1 1.0
2016-Aug-22 19:34N 32°21' W 090°55'3 3.5
2016-Aug-22 18:33N 32°21' W 090°59'5 4.6
2016-Aug-22 17:33N 32°21' W 090°53'2 2.4
2016-Aug-22 16:33N 32°23' W 090°53'0 0.4
2016-Aug-22 15:33N 32°23' W 090°53'0 0.4
2016-Aug-22 14:33N 32°23' W 090°53'0 0.0
2016-Aug-22 13:33N 32°23' W 090°53'0 0.5
2016-Aug-22 12:33N 32°23' W 090°53'4 3.6
2016-Aug-22 11:33N 32°20' W 090°54'2 0.6
2016-Aug-22 08:33N 32°21' W 090°53'2 2.3
2016-Aug-22 07:33N 32°21' W 090°56'3 0.6
2016-Aug-22 02:12N 32°23' W 090°53'0 0.0
2016-Aug-22 01:34N 32°23' W 090°53'0 0.0
2016-Aug-22 00:34N 32°23' W 090°53'2 1.5
2016-Aug-21 23:34N 32°22' W 090°53'2 2.3
2016-Aug-21 22:34N 32°20' W 090°54'0 0.0
2016-Aug-21 21:34N 32°20' W 090°54'1 0.7
2016-Aug-21 20:34N 32°20' W 090°54'3 2.9
2016-Aug-21 19:34N 32°23' W 090°53'0 0.0
2016-Aug-21 18:34N 32°23' W 090°53'0 0.0
2016-Aug-21 17:33N 32°23' W 090°53'0 0.0
2016-Aug-21 16:34N 32°23' W 090°53'0 0.0
2016-Aug-21 15:34N 32°23' W 090°53'0 0.0
2016-Aug-21 14:34N 32°23' W 090°53'0 0.0
2016-Aug-21 13:34N 32°23' W 090°53'0 0.1
2016-Aug-21 12:33N 32°23' W 090°54'1 0.4
2016-Aug-21 09:33N 32°23' W 090°52'1 0.9
2016-Aug-21 08:33N 32°23' W 090°53'0 0.0
2016-Aug-21 07:33N 32°23' W 090°53'0 0.0
2016-Aug-21 06:33N 32°23' W 090°53'0 0.0
2016-Aug-21 05:33N 32°23' W 090°53'0 0.0
2016-Aug-21 04:33N 32°23' W 090°53'0 0.0
2016-Aug-21 03:33N 32°23' W 090°53'0 0.0
2016-Aug-21 02:33N 32°23' W 090°53'0 0.0
2016-Aug-21 01:34N 32°23' W 090°53'0 0.0
2016-Aug-21 00:33N 32°23' W 090°53'2 2.2
2016-Aug-20 23:33N 32°21' W 090°53'1 0.7
2016-Aug-20 21:34N 32°20' W 090°54'1 0.9
2016-Aug-20 20:34N 32°20' W 090°54'0 0.0
2016-Aug-20 19:34N 32°20' W 090°54'0 0.0
2016-Aug-20 18:33N 32°20' W 090°54'0 0.0
2016-Aug-20 17:34N 32°20' W 090°54'0 0.1
2016-Aug-20 16:34N 32°20' W 090°54'0 0.0
2016-Aug-20 15:34N 32°20' W 090°54'1 1.1
2016-Aug-20 14:33N 32°21' W 090°53'0 0.2
2016-Aug-20 13:33N 32°21' W 090°53'3 3.2
2016-Aug-20 12:33N 32°21' W 090°57'3 0.7
2016-Aug-20 08:27N 32°20' W 090°54'4 4.0
2016-Aug-20 07:34N 32°23' W 090°53'0 0.0
2016-Aug-20 06:33N 32°23' W 090°53'0 0.0
2016-Aug-20 05:33N 32°23' W 090°53'0 0.0
2016-Aug-20 04:33N 32°23' W 090°53'0 0.0
2016-Aug-20 03:33N 32°23' W 090°53'0 0.0
2016-Aug-20 02:33N 32°23' W 090°53'0 0.0
2016-Aug-20 01:33N 32°23' W 090°53'0 0.0
2016-Aug-20 00:33N 32°23' W 090°53'2 1.8
2016-Aug-19 23:33N 32°21' W 090°53'3 2.6
2016-Aug-19 22:33N 32°19' W 090°54'1 0.8
2016-Aug-19 21:33N 32°18' W 090°55'4 4.4
2016-Aug-19 20:33N 32°22' W 090°53'0 0.0
2016-Aug-19 19:33N 32°22' W 090°53'2 1.8
2016-Aug-19 18:33N 32°21' W 090°53'0 0.0
2016-Aug-19 17:33N 32°21' W 090°53'0 0.0
2016-Aug-19 16:33N 32°21' W 090°53'1 0.5
2016-Aug-19 15:33N 32°21' W 090°53'3 2.9
2016-Aug-19 14:33N 32°21' W 090°57'0 0.2
2016-Aug-19 13:33N 32°21' W 090°57'0 0.1
2016-Aug-19 12:33N 32°21' W 090°57'3 2.8
2016-Aug-19 11:33N 32°19' W 090°54'1 0.8
2016-Aug-19 10:10N 32°20' W 090°54'3 4.7
2016-Aug-19 09:33N 32°23' W 090°53'0 0.0
2016-Aug-19 08:33N 32°23' W 090°53'0 0.0
2016-Aug-19 07:33N 32°23' W 090°53'0 0.0
2016-Aug-19 06:33N 32°23' W 090°53'0 0.0
2016-Aug-19 05:33N 32°23' W 090°53'0 0.0
2016-Aug-19 04:33N 32°23' W 090°53'0 0.0
2016-Aug-19 03:33N 32°23' W 090°53'0 0.0
2016-Aug-19 02:33N 32°23' W 090°53'0 0.0
2016-Aug-19 01:33N 32°23' W 090°53'1 1.3
2016-Aug-19 00:33N 32°22' W 090°53'3 1.1
2016-Aug-18 22:05N 32°20' W 090°54'3 6.6
2016-Aug-18 21:33N 32°23' W 090°53'1 0.6
2016-Aug-18 20:34N 32°23' W 090°53'0 0.0
2016-Aug-18 19:33N 32°23' W 090°53'0 0.0
2016-Aug-18 18:33N 32°23' W 090°53'0 0.0
2016-Aug-18 17:33N 32°23' W 090°53'0 0.0
2016-Aug-18 16:33N 32°23' W 090°53'0 0.0
2016-Aug-18 15:33N 32°23' W 090°53'0 0.0
2016-Aug-18 14:33N 32°23' W 090°53'1 0.5
2016-Aug-18 13:33N 32°23' W 090°53'3 1.7
2016-Aug-18 11:33N 32°20' W 090°54'0 0.1
2016-Aug-18 10:20N 32°20' W 090°54'4 4.6
2016-Aug-18 09:33N 32°23' W 090°53'0 0.0
2016-Aug-18 08:34N 32°23' W 090°53'0 0.0
2016-Aug-18 07:34N 32°23' W 090°53'0 0.0
2016-Aug-18 06:34N 32°23' W 090°53'0 0.0
2016-Aug-18 05:34N 32°23' W 090°53'0 0.0
2016-Aug-18 04:33N 32°23' W 090°53'0 0.2
2016-Aug-18 03:33N 32°23' W 090°54'0 0.2
2016-Aug-18 02:33N 32°23' W 090°53'0 0.0
2016-Aug-18 01:34N 32°23' W 090°53'0 0.5
2016-Aug-18 00:33N 32°23' W 090°53'3 1.6
2016-Aug-17 22:25N 32°20' W 090°54'0 0.1
2016-Aug-17 21:34N 32°20' W 090°54'1 1.1
2016-Aug-17 20:34N 32°21' W 090°53'3 3.4
2016-Aug-17 19:34N 32°21' W 090°57'2 1.7
2016-Aug-17 18:34N 32°21' W 090°55'3 3.0
2016-Aug-17 17:34N 32°22' W 090°53'0 0.3
2016-Aug-17 16:33N 32°22' W 090°53'1 1.0
2016-Aug-17 15:33N 32°23' W 090°53'1 1.2
2016-Aug-17 14:33N 32°23' W 090°54'0 0.4
2016-Aug-17 13:34N 32°23' W 090°54'2 1.5
2016-Aug-17 12:34N 32°21' W 090°53'2 1.9
2016-Aug-17 11:34N 32°20' W 090°54'2 0.8
2016-Aug-17 09:33N 32°21' W 090°53'1 1.3
2016-Aug-17 08:33N 32°22' W 090°53'2 2.1
2016-Aug-17 07:33N 32°20' W 090°54'0 0.2
2016-Aug-17 06:33N 32°20' W 090°54'0 0.1
2016-Aug-17 05:33N 32°20' W 090°54'0 0.3
2016-Aug-17 04:33N 32°20' W 090°54'0 0.0
2016-Aug-17 03:33N 32°20' W 090°54'0 0.0
2016-Aug-17 02:33N 32°20' W 090°54'0 0.0
2016-Aug-17 01:33N 32°20' W 090°54'1 1.3
2016-Aug-17 00:33N 32°22' W 090°53'1 0.6
2016-Aug-16 23:33N 32°21' W 090°53'0 0.2
2016-Aug-16 21:33N 32°21' W 090°53'2 2.2
2016-Aug-16 20:33N 32°23' W 090°53'1 1.4
2016-Aug-16 19:33N 32°22' W 090°53'2 1.5
2016-Aug-16 18:33N 32°23' W 090°54'2 2.3
2016-Aug-16 17:33N 32°20' W 090°54'0 0.2
2016-Aug-16 16:33N 32°20' W 090°54'3 2.6
2016-Aug-16 15:33N 32°23' W 090°53'1 0.9
2016-Aug-16 14:33N 32°23' W 090°53'0 0.1
2016-Aug-16 13:33N 32°23' W 090°53'1 0.8
2016-Aug-16 12:33N 32°23' W 090°54'3 2.4
2016-Aug-16 11:16N 32°20' W 090°54'2 2.6
2016-Aug-16 10:33N 32°18' W 090°55'5 5.2
2016-Aug-16 09:33N 32°23' W 090°53'1 0.8
2016-Aug-16 08:33N 32°23' W 090°53'0 0.0
2016-Aug-16 07:33N 32°23' W 090°53'0 0.0
2016-Aug-16 06:33N 32°23' W 090°53'0 0.0
2016-Aug-16 04:33N 32°23' W 090°53'0 0.0
2016-Aug-16 03:33N 32°23' W 090°53'1 1.0
2016-Aug-16 02:33N 32°22' W 090°53'2 1.7
2016-Aug-16 01:33N 32°21' W 090°53'0 0.3
2016-Aug-16 00:33N 32°20' W 090°54'0 0.2
2016-Aug-15 23:33N 32°20' W 090°54'1 0.3
2016-Aug-15 21:33N 32°20' W 090°54'1 0.8
2016-Aug-15 20:33N 32°19' W 090°54'0 0.4
2016-Aug-15 19:34N 32°19' W 090°55'5 4.6
2016-Aug-15 18:33N 32°23' W 090°53'2 1.8
2016-Aug-15 17:34N 32°24' W 090°55'1 1.4
2016-Aug-15 16:34N 32°23' W 090°53'0 0.0
2016-Aug-15 15:33N 32°23' W 090°53'0 0.0
2016-Aug-15 14:34N 32°23' W 090°53'0 0.3
2016-Aug-15 13:34N 32°23' W 090°53'4 1.1
2016-Aug-15 10:16N 32°20' W 090°54'3 4.0
2016-Aug-15 09:33N 32°22' W 090°53'0 0.4
2016-Aug-15 08:33N 32°22' W 090°53'0 0.0
2016-Aug-15 07:33N 32°22' W 090°53'0 0.0
2016-Aug-15 06:33N 32°22' W 090°53'0 0.0
2016-Aug-15 04:33N 32°22' W 090°53'0 0.0
2016-Aug-15 03:33N 32°22' W 090°53'0 0.0
2016-Aug-15 02:33N 32°22' W 090°53'0 0.0
2016-Aug-15 01:33N 32°22' W 090°53'0 0.4
2016-Aug-15 00:34N 32°23' W 090°54'3 2.8
2016-Aug-14 23:33N 32°20' W 090°54'3 1.3
2016-Aug-14 21:33N 32°22' W 090°53'1 1.2
2016-Aug-14 20:33N 32°23' W 090°53'0 0.0
2016-Aug-14 19:33N 32°23' W 090°53'0 0.0
2016-Aug-14 18:33N 32°23' W 090°53'0 0.0
2016-Aug-14 17:33N 32°23' W 090°53'0 0.0
2016-Aug-14 16:33N 32°23' W 090°53'0 0.0
2016-Aug-14 15:33N 32°23' W 090°53'0 0.3
2016-Aug-14 14:33N 32°23' W 090°53'2 1.5
2016-Aug-14 13:33N 32°23' W 090°55'4 3.8
2016-Aug-14 12:33N 32°20' W 090°54'0 0.0
2016-Aug-14 10:34N 32°20' W 090°54'1 0.8
2016-Aug-14 09:33N 32°20' W 090°54'  

Dump ship's entire track history